Airfield :
LOGIN :

Register | Disclaimer

   EN    FR    IT 

 










Legend :    VFR   Marginal VFR   IFR   Intensive IFR   Very Intensive IFR
Visi :
Ceiling :
>= 8 km
>= 3000ft
5 to 8 km
1000 to 3000 ft
1500m to 5 km
500 to 1000 ft
800 to 1500m
200 to 500 ft
< 800m
< 200 ft
Symbols :   Thunderstorms  Fog  Heavy snow  Heavy precipitations  Wind > 20 kt
SIGMETs :     Misc.  Thunderstorms  Icing  Turbulence  Mountain Waves  Volcanic Ashes






- Airport Elevation : 37 ft


EHVL - Vlieland Heliport

CURRENT METAR :
  • 010113Z AUTO 33023KT 9999 FEW012 SCT014 BKN017 09/08 Q1010 GRN

EXPIRED METARs :
  • 010100Z AUTO 32023KT 6000 -RA FEW012 SCT016 BKN024 09/07 Q1010 WHT
  • 010055Z AUTO 32023KT 9000 BR FEW001 SCT014 BKN021 09/07 Q1010 GRN
  • 010049Z AUTO 32024KT 9999 FEW012 BKN014 BKN029 09/07 Q1010 GRN
  • 010025Z AUTO 32024KT 9999 FEW014 SCT016 BKN021 09/07 Q1010 WHT
  • 010015Z AUTO 32024KT 9999 FEW014 SCT022 BKN025 09/07 Q1010 WHT
  • 010002Z AUTO 32023KT 9000 BR FEW013 BKN016 BKN025 09/07 Q1010 WHT
  • 302359Z AUTO 32024KT 9999 FEW011 BKN014 BKN018 09/07 Q1010 GRN
  • 302355Z AUTO 31023KT 9000 -RA FEW011 SCT014 BKN017 09/07 Q1010 GRN
  • 302327Z AUTO 31024KT 9999 FEW016 SCT020 BKN025 09/06 Q1010 WHT
  • 302325Z AUTO 32024KT 9999 FEW017 SCT021 BKN025 09/06 Q1010 WHT
  • 302314Z AUTO 32024KT 9999 SCT017 BKN026 OVC029 10/06 Q1010 WHT
  • 302255Z AUTO 32024KT 9999 FEW019 BKN026 BKN033 09/06 Q1010 BLU
  • 302239Z AUTO 33026KT 9999 FEW018 BKN025 OVC029 09/06 Q1010 BLU
  • 302225Z AUTO 33025KT 9999 SCT016 BKN019 BKN024 09/07 Q1010 WHT

Expired Forecast.



MET'MAP, your aeronautical weather chart ! - Copyright ORBIFLY December 2007 - Disclaimer

ORBIFLY MET'MAP TEAM :

Programming & Development : Alexandra Zaïnal
Concept & original design : Baudouin d'Aumeries
Assistance for programming : Marc-Olivier Méhu
Technical & hardware support : Manuel Goepfert

Contact : metmap@orbifly.com




SOURCES & CREDITS :

   NOAA